Thompson, MO (65285)

4:46 PM CDT on July 23, 2014 (GMT -0500)
Near Lakeview Lake (KMOMEXIC6) Elev 817 ft | 39.16 °N, 91.89 °W | Change Station

Current weather conditions updated 1 second ago

Partly Cloudy
Partly Cloudy
84.6 °F
Feels Like 87 °F
N
1.0
Wind Variable Wind from NNE
Gusts 6.0 mph

Tomorrow is forecast to be Cooler than today.

Today
High -- | Low -- °F
--% Chance of Precip.
Yesterday
High -- | Low -- °F
Precip. -- in
6:00 AM 8:28 PM
Waning Crescent, 8% visible
Pressure 30.05 in
Visibility 10.0 miles
Clouds Scattered Clouds 4100 ft
Heat Index 87 °F
Dew Point 66 °F
Humidity 54%
Rainfall 0.00 in
Snow Depth Not available.
UV 6 out of 12
Pollen 5.40 out of 12
Air Quality Not available.
Flu Activity Not available.
METAR KCOU 232054Z 02013KT 10SM SCT041 29/19 A3008 RMK AO2 SLP174 T02940189 58012

More Conditions Fewer Conditions

Pressure 30.05 in
Visibility 10.0 miles
Clouds Scattered Clouds 4100 ft
Heat Index 87 °F
Dew Point 66 °F
Humidity 54%
Rainfall 0.00 in
Snow Depth Not available.
UV 6 out of 12
Pollen 5.40 out of 12
Air Quality Not available.
Flu Activity Not available.
METAR KCOU 232054Z 02013KT 10SM SCT041 29/19 A3008 RMK AO2 SLP174 T02940189 58012

More Conditions Fewer Conditions

10-Day Weather Forecast

Almanac

Astronomy

Jul. 23, 2014 Rise Set
Actual Time 6:00 AM CDT 8:28 PM CDT
Civil Twilight 5:29 AM CDT 8:58 PM CDT
Nautical Twilight 4:51 AM CDT 9:36 PM CDT
Astronomical Twilight 4:09 AM CDT 10:18 PM CDT
Moon 3:19 AM CDT 5:57 PM CDT
Length of Visible Light 15h 28m
Length of Day
14h 27m
Tomorrow will be 1m 39s shorter.
Waning Crescent, 8% of the Moon is Illuminated
Today
Waning Crescent
Jul 26
New
Aug 3
First Quarter
Aug 10
Full
Aug 17
Last Quarter

Today's Extremes

State Highs State Lows

Community

WunderPhotos

Upload Photos

1,736,797 photos uploaded!

Nearby

Snow Depth

Station Depth Elevation
No new snow has been reported.

Earthquake Activity

City Distance Mag. Time & Date
No recent earthquake activity has been reported nearby.
Minimum magnitude displayed is 2.5.

Coastal Water Temperatures

Place Temperature
No Stations Reporting

Nearby Weather Stations

Station Location Temp. Heat Index Dew Point Humidity Wind Precip. Elev Updated Type
Near Lakeview Lake, Mexico, MO 84.6 °F 87 °F 66 °F 54% NNE  at  1.0 mph 0.00 in / hr 817 ft 4:46 PM CDT Rapid Fire
Rolling Hills, Centralia, MO 84.2 °F 90 °F 72 °F 66% NE  at  4.9 mph 0.00 in / hr 863 ft 4:46 PM CDT Rapid Fire
Mexico, MO 84.5 °F 87 °F 67 °F 55% North  at  5.0 mph 0.00 in / hr 778 ft 4:35 PM CDT Normal
NonFedAWOS MEXICO , Mexico, MO 86 °F 91 °F 70 °F 59% North  at  13 mph 0.00 in / hr 823 ft 3:59 PM CDT MADIS
Millersburg, Fulton, MO 84.7 °F 88 °F 68 °F 58% WNW  at  5.0 mph 0.00 in / hr 854 ft 4:30 PM CDT Normal
NW Boone County, Columbia, MO 85.1 °F 89 °F 68 °F 57% North  at  3.1 mph 0.00 in / hr 761 ft 4:45 PM CDT Normal
YMCA, Fulton, MO 84.8 °F 89 °F 69 °F 59% NW  at  5.0 mph 0.00 in / hr 853 ft 4:32 PM CDT Normal

Show More Stations Show Fewer Stations